sensor_id;sensor_type;location;lat;lon;timestamp;temperature;humidity
74178;DHT22;62540;48.456;-4.456;2022-12-10T00:00:16;3.98;69.61
74178;DHT22;62540;48.456;-4.456;2022-12-10T00:02:42;3.91;69.40
74178;DHT22;62540;48.456;-4.456;2022-12-10T00:05:07;3.92;69.34
74178;DHT22;62540;48.456;-4.456;2022-12-10T00:07:33;3.90;69.44
74178;DHT22;62540;48.456;-4.456;2022-12-10T00:09:58;3.84;69.42
74178;DHT22;62540;48.456;-4.456;2022-12-10T00:12:24;3.81;69.49
74178;DHT22;62540;48.456;-4.456;2022-12-10T00:14:49;3.81;69.59
74178;DHT22;62540;48.456;-4.456;2022-12-10T00:17:15;3.81;69.44
74178;DHT22;62540;48.456;-4.456;2022-12-10T00:19:40;3.81;69.29
74178;DHT22;62540;48.456;-4.456;2022-12-10T00:22:05;3.75;69.27
74178;DHT22;62540;48.456;-4.456;2022-12-10T00:24:31;3.73;69.29
74178;DHT22;62540;48.456;-4.456;2022-12-10T00:26:56;3.71;69.51
74178;DHT22;62540;48.456;-4.456;2022-12-10T00:29:22;3.69;69.75
74178;DHT22;62540;48.456;-4.456;2022-12-10T00:31:47;3.67;69.89
74178;DHT22;62540;48.456;-4.456;2022-12-10T00:34:13;3.66;69.88
74178;DHT22;62540;48.456;-4.456;2022-12-10T00:36:44;3.59;69.91
74178;DHT22;62540;48.456;-4.456;2022-12-10T00:39:16;3.57;70.04
74178;DHT22;62540;48.456;-4.456;2022-12-10T00:41:42;3.53;70.08
74178;DHT22;62540;48.456;-4.456;2022-12-10T00:44:08;3.51;70.08
74178;DHT22;62540;48.456;-4.456;2022-12-10T00:46:34;3.51;70.31
74178;DHT22;62540;48.456;-4.456;2022-12-10T00:48:59;3.51;70.26
74178;DHT22;62540;48.456;-4.456;2022-12-10T00:51:26;3.46;70.32
74178;DHT22;62540;48.456;-4.456;2022-12-10T00:53:54;3.44;70.27
74178;DHT22;62540;48.456;-4.456;2022-12-10T00:56:22;3.44;69.77
74178;DHT22;62540;48.456;-4.456;2022-12-10T00:58:49;3.41;69.75
74178;DHT22;62540;48.456;-4.456;2022-12-10T01:03:40;3.37;69.96
74178;DHT22;62540;48.456;-4.456;2022-12-10T01:06:29;3.39;69.90
74178;DHT22;62540;48.456;-4.456;2022-12-10T01:08:57;3.33;70.09
74178;DHT22;62540;48.456;-4.456;2022-12-10T01:11:26;3.27;70.37
74178;DHT22;62540;48.456;-4.456;2022-12-10T01:13:52;3.27;70.36
74178;DHT22;62540;48.456;-4.456;2022-12-10T01:16:19;3.23;70.20
74178;DHT22;62540;48.456;-4.456;2022-12-10T01:18:46;3.18;70.25
74178;DHT22;62540;48.456;-4.456;2022-12-10T01:21:15;3.15;70.57
74178;DHT22;62540;48.456;-4.456;2022-12-10T01:23:42;3.16;70.32
74178;DHT22;62540;48.456;-4.456;2022-12-10T01:26:14;3.16;70.18
74178;DHT22;62540;48.456;-4.456;2022-12-10T01:28:40;3.15;70.40
74178;DHT22;62540;48.456;-4.456;2022-12-10T01:31:12;3.16;70.29
74178;DHT22;62540;48.456;-4.456;2022-12-10T01:33:39;3.13;70.36
74178;DHT22;62540;48.456;-4.456;2022-12-10T01:36:11;3.13;70.56
74178;DHT22;62540;48.456;-4.456;2022-12-10T01:38:37;3.12;70.84
74178;DHT22;62540;48.456;-4.456;2022-12-10T01:41:03;3.13;70.84
74178;DHT22;62540;48.456;-4.456;2022-12-10T01:46:46;3.08;70.04
74178;DHT22;62540;48.456;-4.456;2022-12-10T01:49:17;3.11;69.92
74178;DHT22;62540;48.456;-4.456;2022-12-10T01:51:45;3.08;69.82
74178;DHT22;62540;48.456;-4.456;2022-12-10T01:54:15;3.11;69.78
74178;DHT22;62540;48.456;-4.456;2022-12-10T01:56:43;3.11;69.55
74178;DHT22;62540;48.456;-4.456;2022-12-10T01:59:10;3.11;69.40
74178;DHT22;62540;48.456;-4.456;2022-12-10T02:07:46;3.06;69.75
74178;DHT22;62540;48.456;-4.456;2022-12-10T02:15:41;3.01;69.88
74178;DHT22;62540;48.456;-4.456;2022-12-10T02:18:21;3.03;70.11
74178;DHT22;62540;48.456;-4.456;2022-12-10T02:20:53;3.02;70.20
74178;DHT22;62540;48.456;-4.456;2022-12-10T02:23:26;2.99;70.55
74178;DHT22;62540;48.456;-4.456;2022-12-10T02:26:19;2.95;70.63
74178;DHT22;62540;48.456;-4.456;2022-12-10T02:31:47;2.93;70.57
74178;DHT22;62540;48.456;-4.456;2022-12-10T02:34:16;2.89;70.60
74178;DHT22;62540;48.456;-4.456;2022-12-10T02:36:45;2.91;70.52
74178;DHT22;62540;48.456;-4.456;2022-12-10T02:39:18;2.88;70.44
74178;DHT22;62540;48.456;-4.456;2022-12-10T02:41:50;2.91;70.31
74178;DHT22;62540;48.456;-4.456;2022-12-10T02:44:18;2.89;70.15
74178;DHT22;62540;48.456;-4.456;2022-12-10T02:46:46;2.89;70.06
74178;DHT22;62540;48.456;-4.456;2022-12-10T02:49:14;2.89;69.99
74178;DHT22;62540;48.456;-4.456;2022-12-10T02:51:41;2.89;70.19
74178;DHT22;62540;48.456;-4.456;2022-12-10T02:57:10;2.87;70.06
74178;DHT22;62540;48.456;-4.456;2022-12-10T03:02:12;2.84;69.94
74178;DHT22;62540;48.456;-4.456;2022-12-10T03:07:24;2.82;70.00
74178;DHT22;62540;48.456;-4.456;2022-12-10T03:09:59;2.81;70.16
74178;DHT22;62540;48.456;-4.456;2022-12-10T03:12:41;2.80;69.95
74178;DHT22;62540;48.456;-4.456;2022-12-10T03:15:10;2.78;70.28
74178;DHT22;62540;48.456;-4.456;2022-12-10T03:17:37;2.80;70.54
74178;DHT22;62540;48.456;-4.456;2022-12-10T03:20:06;2.74;70.57
74178;DHT22;62540;48.456;-4.456;2022-12-10T03:22:34;2.72;70.46
74178;DHT22;62540;48.456;-4.456;2022-12-10T03:25:01;2.74;70.40
74178;DHT22;62540;48.456;-4.456;2022-12-10T03:27:29;2.71;70.56
74178;DHT22;62540;48.456;-4.456;2022-12-10T03:29:56;2.72;70.55
74178;DHT22;62540;48.456;-4.456;2022-12-10T03:32:25;2.66;70.55
74178;DHT22;62540;48.456;-4.456;2022-12-10T03:34:53;2.68;70.50
74178;DHT22;62540;48.456;-4.456;2022-12-10T03:37:21;2.66;70.42
74178;DHT22;62540;48.456;-4.456;2022-12-10T03:39:47;2.64;70.41
74178;DHT22;62540;48.456;-4.456;2022-12-10T03:42:12;2.64;70.40
74178;DHT22;62540;48.456;-4.456;2022-12-10T03:44:38;2.61;70.42
74178;DHT22;62540;48.456;-4.456;2022-12-10T03:47:08;2.64;70.24
74178;DHT22;62540;48.456;-4.456;2022-12-10T03:49:35;2.60;70.36
74178;DHT22;62540;48.456;-4.456;2022-12-10T03:52:00;2.57;70.33
74178;DHT22;62540;48.456;-4.456;2022-12-10T03:54:26;2.57;70.17
74178;DHT22;62540;48.456;-4.456;2022-12-10T03:56:51;2.53;70.16
74178;DHT22;62540;48.456;-4.456;2022-12-10T03:59:17;2.53;70.11
74178;DHT22;62540;48.456;-4.456;2022-12-10T04:01:42;2.53;70.36
74178;DHT22;62540;48.456;-4.456;2022-12-10T04:04:08;2.54;70.57
74178;DHT22;62540;48.456;-4.456;2022-12-10T04:06:33;2.57;70.51
74178;DHT22;62540;48.456;-4.456;2022-12-10T04:08:59;2.58;70.34
74178;DHT22;62540;48.456;-4.456;2022-12-10T04:11:25;2.60;70.19
74178;DHT22;62540;48.456;-4.456;2022-12-10T04:13:53;2.61;69.98
74178;DHT22;62540;48.456;-4.456;2022-12-10T04:16:38;2.58;70.03
74178;DHT22;62540;48.456;-4.456;2022-12-10T04:19:05;2.58;69.94
74178;DHT22;62540;48.456;-4.456;2022-12-10T04:21:33;2.60;70.33
74178;DHT22;62540;48.456;-4.456;2022-12-10T04:24:29;2.60;70.68
74178;DHT22;62540;48.456;-4.456;2022-12-10T04:27:28;2.55;70.72
74178;DHT22;62540;48.456;-4.456;2022-12-10T04:29:55;2.57;70.79
74178;DHT22;62540;48.456;-4.456;2022-12-10T04:32:22;2.57;70.77
74178;DHT22;62540;48.456;-4.456;2022-12-10T04:34:48;2.55;70.48
74178;DHT22;62540;48.456;-4.456;2022-12-10T04:37:13;2.57;70.36
74178;DHT22;62540;48.456;-4.456;2022-12-10T04:39:39;2.58;70.27
74178;DHT22;62540;48.456;-4.456;2022-12-10T04:42:05;2.58;70.24
74178;DHT22;62540;48.456;-4.456;2022-12-10T04:44:31;2.54;70.26
74178;DHT22;62540;48.456;-4.456;2022-12-10T04:46:57;2.54;70.71
74178;DHT22;62540;48.456;-4.456;2022-12-10T04:49:23;2.57;70.85
74178;DHT22;62540;48.456;-4.456;2022-12-10T04:51:48;2.54;70.47
74178;DHT22;62540;48.456;-4.456;2022-12-10T04:54:15;2.50;70.33
74178;DHT22;62540;48.456;-4.456;2022-12-10T04:56:41;2.45;70.19
74178;DHT22;62540;48.456;-4.456;2022-12-10T04:59:07;2.41;70.15
74178;DHT22;62540;48.456;-4.456;2022-12-10T05:01:34;2.40;70.30
74178;DHT22;62540;48.456;-4.456;2022-12-10T05:04:04;2.37;70.39
74178;DHT22;62540;48.456;-4.456;2022-12-10T05:06:30;2.37;70.35
74178;DHT22;62540;48.456;-4.456;2022-12-10T05:08:56;2.36;70.39
74178;DHT22;62540;48.456;-4.456;2022-12-10T05:11:23;2.34;70.41
74178;DHT22;62540;48.456;-4.456;2022-12-10T05:13:49;2.34;70.36
74178;DHT22;62540;48.456;-4.456;2022-12-10T05:16:17;2.34;70.40
74178;DHT22;62540;48.456;-4.456;2022-12-10T05:18:42;2.32;70.44
74178;DHT22;62540;48.456;-4.456;2022-12-10T05:21:11;2.30;70.46
74178;DHT22;62540;48.456;-4.456;2022-12-10T05:23:48;2.32;70.50
74178;DHT22;62540;48.456;-4.456;2022-12-10T05:26:22;2.29;70.58
74178;DHT22;62540;48.456;-4.456;2022-12-10T05:31:19;2.27;70.57
74178;DHT22;62540;48.456;-4.456;2022-12-10T05:33:45;2.27;70.70
74178;DHT22;62540;48.456;-4.456;2022-12-10T05:36:12;2.29;70.68
74178;DHT22;62540;48.456;-4.456;2022-12-10T05:38:38;2.27;70.51
74178;DHT22;62540;48.456;-4.456;2022-12-10T05:41:05;2.27;70.48
74178;DHT22;62540;48.456;-4.456;2022-12-10T05:43:31;2.27;70.46
74178;DHT22;62540;48.456;-4.456;2022-12-10T05:46:01;2.32;70.34
74178;DHT22;62540;48.456;-4.456;2022-12-10T05:48:27;2.33;70.12
74178;DHT22;62540;48.456;-4.456;2022-12-10T05:50:53;2.30;70.00
74178;DHT22;62540;48.456;-4.456;2022-12-10T05:53:18;2.23;70.49
74178;DHT22;62540;48.456;-4.456;2022-12-10T05:55:44;2.16;71.11
74178;DHT22;62540;48.456;-4.456;2022-12-10T05:58:09;2.17;71.13
74178;DHT22;62540;48.456;-4.456;2022-12-10T06:00:38;2.17;70.95
74178;DHT22;62540;48.456;-4.456;2022-12-10T06:03:04;2.19;70.81
74178;DHT22;62540;48.456;-4.456;2022-12-10T06:05:38;2.20;70.66
74178;DHT22;62540;48.456;-4.456;2022-12-10T06:08:05;2.23;70.65
74178;DHT22;62540;48.456;-4.456;2022-12-10T06:10:30;2.22;70.75
74178;DHT22;62540;48.456;-4.456;2022-12-10T06:12:56;2.23;70.79
74178;DHT22;62540;48.456;-4.456;2022-12-10T06:15:21;2.22;70.63
74178;DHT22;62540;48.456;-4.456;2022-12-10T06:17:47;2.22;71.08
74178;DHT22;62540;48.456;-4.456;2022-12-10T06:20:12;2.22;71.31
74178;DHT22;62540;48.456;-4.456;2022-12-10T06:22:37;2.24;71.10
74178;DHT22;62540;48.456;-4.456;2022-12-10T06:25:03;2.24;70.86
74178;DHT22;62540;48.456;-4.456;2022-12-10T06:27:31;2.30;70.92
74178;DHT22;62540;48.456;-4.456;2022-12-10T06:29:56;2.29;70.94
74178;DHT22;62540;48.456;-4.456;2022-12-10T06:32:22;2.29;71.85
74178;DHT22;62540;48.456;-4.456;2022-12-10T06:34:47;2.23;72.50
74178;DHT22;62540;48.456;-4.456;2022-12-10T06:37:13;2.23;72.83
74178;DHT22;62540;48.456;-4.456;2022-12-10T06:39:38;2.23;72.98
74178;DHT22;62540;48.456;-4.456;2022-12-10T06:42:04;2.22;73.44
74178;DHT22;62540;48.456;-4.456;2022-12-10T06:44:30;2.23;73.71
74178;DHT22;62540;48.456;-4.456;2022-12-10T06:46:56;2.24;74.08
74178;DHT22;62540;48.456;-4.456;2022-12-10T06:49:21;2.24;74.02
74178;DHT22;62540;48.456;-4.456;2022-12-10T06:51:47;2.26;74.55
74178;DHT22;62540;48.456;-4.456;2022-12-10T06:54:12;2.27;74.11
74178;DHT22;62540;48.456;-4.456;2022-12-10T06:56:38;2.32;73.57
74178;DHT22;62540;48.456;-4.456;2022-12-10T06:59:05;2.34;73.62
74178;DHT22;62540;48.456;-4.456;2022-12-10T07:01:31;2.33;73.75
74178;DHT22;62540;48.456;-4.456;2022-12-10T07:03:57;2.32;73.71
74178;DHT22;62540;48.456;-4.456;2022-12-10T07:06:24;2.32;73.59
74178;DHT22;62540;48.456;-4.456;2022-12-10T07:08:51;2.34;73.50
74178;DHT22;62540;48.456;-4.456;2022-12-10T07:11:19;2.33;73.37
74178;DHT22;62540;48.456;-4.456;2022-12-10T07:13:45;2.33;73.40
74178;DHT22;62540;48.456;-4.456;2022-12-10T07:16:17;2.37;73.33
74178;DHT22;62540;48.456;-4.456;2022-12-10T07:18:43;2.37;73.04
74178;DHT22;62540;48.456;-4.456;2022-12-10T07:21:36;2.40;72.89
74178;DHT22;62540;48.456;-4.456;2022-12-10T07:24:07;2.41;73.09
74178;DHT22;62540;48.456;-4.456;2022-12-10T07:26:35;2.43;73.24
74178;DHT22;62540;48.456;-4.456;2022-12-10T07:29:02;2.41;73.10
74178;DHT22;62540;48.456;-4.456;2022-12-10T07:31:28;2.44;73.03
74178;DHT22;62540;48.456;-4.456;2022-12-10T07:33:54;2.38;73.17
74178;DHT22;62540;48.456;-4.456;2022-12-10T07:36:21;2.40;73.05
74178;DHT22;62540;48.456;-4.456;2022-12-10T07:38:47;2.41;72.89
74178;DHT22;62540;48.456;-4.456;2022-12-10T07:41:13;2.40;72.94
74178;DHT22;62540;48.456;-4.456;2022-12-10T07:43:41;2.38;72.90
74178;DHT22;62540;48.456;-4.456;2022-12-10T07:46:10;2.38;72.85
74178;DHT22;62540;48.456;-4.456;2022-12-10T07:48:36;2.36;72.90
74178;DHT22;62540;48.456;-4.456;2022-12-10T07:51:02;2.37;72.84
74178;DHT22;62540;48.456;-4.456;2022-12-10T07:53:28;2.37;72.94
74178;DHT22;62540;48.456;-4.456;2022-12-10T07:55:53;2.37;73.18
74178;DHT22;62540;48.456;-4.456;2022-12-10T07:58:18;2.33;73.20
74178;DHT22;62540;48.456;-4.456;2022-12-10T08:00:44;2.33;73.07
74178;DHT22;62540;48.456;-4.456;2022-12-10T08:03:09;2.34;73.01
74178;DHT22;62540;48.456;-4.456;2022-12-10T08:05:35;2.37;73.11
74178;DHT22;62540;48.456;-4.456;2022-12-10T08:08:01;2.33;73.30
74178;DHT22;62540;48.456;-4.456;2022-12-10T08:10:26;2.33;73.47
74178;DHT22;62540;48.456;-4.456;2022-12-10T08:12:51;2.30;73.48
74178;DHT22;62540;48.456;-4.456;2022-12-10T08:15:17;2.30;73.71
74178;DHT22;62540;48.456;-4.456;2022-12-10T08:17:42;2.27;73.95
74178;DHT22;62540;48.456;-4.456;2022-12-10T08:20:08;2.29;73.74
74178;DHT22;62540;48.456;-4.456;2022-12-10T08:22:34;2.30;73.88
74178;DHT22;62540;48.456;-4.456;2022-12-10T08:25:01;2.34;73.93
74178;DHT22;62540;48.456;-4.456;2022-12-10T08:27:26;2.36;73.88
74178;DHT22;62540;48.456;-4.456;2022-12-10T08:29:51;2.41;73.90
74178;DHT22;62540;48.456;-4.456;2022-12-10T08:32:17;2.43;73.97
74178;DHT22;62540;48.456;-4.456;2022-12-10T08:34:42;2.48;73.74
74178;DHT22;62540;48.456;-4.456;2022-12-10T08:37:08;2.57;73.73
74178;DHT22;62540;48.456;-4.456;2022-12-10T08:39:33;2.61;73.67
74178;DHT22;62540;48.456;-4.456;2022-12-10T08:41:59;2.65;73.67
74178;DHT22;62540;48.456;-4.456;2022-12-10T08:44:24;2.71;73.68
74178;DHT22;62540;48.456;-4.456;2022-12-10T08:46:50;2.80;73.74
74178;DHT22;62540;48.456;-4.456;2022-12-10T08:49:15;2.85;73.78
74178;DHT22;62540;48.456;-4.456;2022-12-10T08:51:41;2.91;73.65
74178;DHT22;62540;48.456;-4.456;2022-12-10T08:54:06;2.99;73.69
74178;DHT22;62540;48.456;-4.456;2022-12-10T08:56:32;3.08;73.68
74178;DHT22;62540;48.456;-4.456;2022-12-10T08:58:57;3.13;73.83
74178;DHT22;62540;48.456;-4.456;2022-12-10T09:01:23;3.22;73.67
74178;DHT22;62540;48.456;-4.456;2022-12-10T09:03:48;3.32;73.61
74178;DHT22;62540;48.456;-4.456;2022-12-10T09:06:17;3.34;73.52
74178;DHT22;62540;48.456;-4.456;2022-12-10T09:08:43;3.43;73.45
74178;DHT22;62540;48.456;-4.456;2022-12-10T09:11:11;3.49;73.33
74178;DHT22;62540;48.456;-4.456;2022-12-10T09:13:37;3.56;73.39
74178;DHT22;62540;48.456;-4.456;2022-12-10T09:16:03;3.60;73.04
74178;DHT22;62540;48.456;-4.456;2022-12-10T09:18:29;3.63;73.10
74178;DHT22;62540;48.456;-4.456;2022-12-10T09:20:54;3.71;73.04
74178;DHT22;62540;48.456;-4.456;2022-12-10T09:23:19;3.74;72.78
74178;DHT22;62540;48.456;-4.456;2022-12-10T09:25:45;3.80;72.78
74178;DHT22;62540;48.456;-4.456;2022-12-10T09:28:10;3.91;72.66
74178;DHT22;62540;48.456;-4.456;2022-12-10T09:30:36;3.95;72.38
74178;DHT22;62540;48.456;-4.456;2022-12-10T09:33:02;4.02;72.50
74178;DHT22;62540;48.456;-4.456;2022-12-10T09:35:27;4.11;72.25
74178;DHT22;62540;48.456;-4.456;2022-12-10T09:37:53;4.16;72.25
74178;DHT22;62540;48.456;-4.456;2022-12-10T09:40:25;4.23;71.87
74178;DHT22;62540;48.456;-4.456;2022-12-10T09:43:06;4.30;71.34
74178;DHT22;62540;48.456;-4.456;2022-12-10T09:46:06;4.33;71.77
74178;DHT22;62540;48.456;-4.456;2022-12-10T09:51:38;4.49;71.83
74178;DHT22;62540;48.456;-4.456;2022-12-10T09:54:28;4.54;72.06
74178;DHT22;62540;48.456;-4.456;2022-12-10T09:56:55;4.66;71.85
74178;DHT22;62540;48.456;-4.456;2022-12-10T09:59:29;4.70;71.24
74178;DHT22;62540;48.456;-4.456;2022-12-10T10:02:27;4.78;71.17
74178;DHT22;62540;48.456;-4.456;2022-12-10T10:04:59;4.90;70.88
74178;DHT22;62540;48.456;-4.456;2022-12-10T10:07:30;4.97;70.96
74178;DHT22;62540;48.456;-4.456;2022-12-10T10:09:59;5.09;71.08
74178;DHT22;62540;48.456;-4.456;2022-12-10T10:12:31;5.18;70.01
74178;DHT22;62540;48.456;-4.456;2022-12-10T10:14:57;5.24;69.41
74178;DHT22;62540;48.456;-4.456;2022-12-10T10:17:31;5.38;69.34
74178;DHT22;62540;48.456;-4.456;2022-12-10T10:19:59;5.48;68.69
74178;DHT22;62540;48.456;-4.456;2022-12-10T10:22:24;5.57;68.22
74178;DHT22;62540;48.456;-4.456;2022-12-10T10:24:51;5.67;68.09
74178;DHT22;62540;48.456;-4.456;2022-12-10T10:27:20;5.78;68.74
74178;DHT22;62540;48.456;-4.456;2022-12-10T10:29:51;5.86;67.90
74178;DHT22;62540;48.456;-4.456;2022-12-10T10:34:45;6.01;68.06
74178;DHT22;62540;48.456;-4.456;2022-12-10T10:37:21;6.10;67.33
74178;DHT22;62540;48.456;-4.456;2022-12-10T10:39:49;6.22;67.52
74178;DHT22;62540;48.456;-4.456;2022-12-10T10:45:05;6.45;66.03
74178;DHT22;62540;48.456;-4.456;2022-12-10T10:47:33;6.52;67.00
74178;DHT22;62540;48.456;-4.456;2022-12-10T10:50:00;6.68;65.88
74178;DHT22;62540;48.456;-4.456;2022-12-10T10:52:30;6.77;66.47
74178;DHT22;62540;48.456;-4.456;2022-12-10T10:54:59;6.89;65.17
74178;DHT22;62540;48.456;-4.456;2022-12-10T10:57:32;7.03;65.64
74178;DHT22;62540;48.456;-4.456;2022-12-10T11:00:22;7.11;65.02
74178;DHT22;62540;48.456;-4.456;2022-12-10T11:02:48;7.23;65.10
74178;DHT22;62540;48.456;-4.456;2022-12-10T11:05:22;7.38;65.42
74178;DHT22;62540;48.456;-4.456;2022-12-10T11:08:00;7.64;65.13
74178;DHT22;62540;48.456;-4.456;2022-12-10T11:10:27;7.89;64.39
74178;DHT22;62540;48.456;-4.456;2022-12-10T11:13:03;8.04;63.30
74178;DHT22;62540;48.456;-4.456;2022-12-10T11:15:36;8.21;62.61
74178;DHT22;62540;48.456;-4.456;2022-12-10T11:21:19;8.51;61.04
74178;DHT22;62540;48.456;-4.456;2022-12-10T11:23:49;8.71;62.71
74178;DHT22;62540;48.456;-4.456;2022-12-10T11:26:32;8.93;61.16
74178;DHT22;62540;48.456;-4.456;2022-12-10T11:35:12;9.37;60.56
74178;DHT22;62540;48.456;-4.456;2022-12-10T11:43:41;9.62;60.16
74178;DHT22;62540;48.456;-4.456;2022-12-10T11:51:46;9.92;59.99
74178;DHT22;62540;48.456;-4.456;2022-12-10T11:59:58;10.20;58.83
74178;DHT22;62540;48.456;-4.456;2022-12-10T12:02:51;10.15;58.50
74178;DHT22;62540;48.456;-4.456;2022-12-10T12:08:16;10.28;58.22
74178;DHT22;62540;48.456;-4.456;2022-12-10T12:13:25;10.35;57.18
74178;DHT22;62540;48.456;-4.456;2022-12-10T12:16:01;10.40;58.47
74178;DHT22;62540;48.456;-4.456;2022-12-10T12:20:54;10.33;56.56
74178;DHT22;62540;48.456;-4.456;2022-12-10T12:23:32;10.18;56.86
74178;DHT22;62540;48.456;-4.456;2022-12-10T12:26:07;10.15;57.34
74178;DHT22;62540;48.456;-4.456;2022-12-10T12:28:37;10.15;58.24
74178;DHT22;62540;48.456;-4.456;2022-12-10T12:31:26;10.12;58.63
74178;DHT22;62540;48.456;-4.456;2022-12-10T12:34:23;10.10;58.35
74178;DHT22;62540;48.456;-4.456;2022-12-10T12:36:46;10.01;56.18
74178;DHT22;62540;48.456;-4.456;2022-12-10T12:39:34;9.85;57.27
74178;DHT22;62540;48.456;-4.456;2022-12-10T12:47:32;9.70;58.34
74178;DHT22;62540;48.456;-4.456;2022-12-10T12:50:02;9.73;58.53
74178;DHT22;62540;48.456;-4.456;2022-12-10T12:52:40;9.81;57.18
74178;DHT22;62540;48.456;-4.456;2022-12-10T12:55:19;9.95;58.66
74178;DHT22;62540;48.456;-4.456;2022-12-10T13:00:43;10.22;57.47
74178;DHT22;62540;48.456;-4.456;2022-12-10T13:03:33;10.28;56.37
74178;DHT22;62540;48.456;-4.456;2022-12-10T13:12:28;10.63;57.47
74178;DHT22;62540;48.456;-4.456;2022-12-10T13:15:03;10.73;55.09
74178;DHT22;62540;48.456;-4.456;2022-12-10T13:17:36;10.77;56.07
74178;DHT22;62540;48.456;-4.456;2022-12-10T13:23:02;10.80;55.88
74178;DHT22;62540;48.456;-4.456;2022-12-10T13:25:42;10.88;56.32
74178;DHT22;62540;48.456;-4.456;2022-12-10T13:41:28;10.76;55.32
74178;DHT22;62540;48.456;-4.456;2022-12-10T13:44:48;10.68;55.74
74178;DHT22;62540;48.456;-4.456;2022-12-10T13:47:53;10.56;53.52
74178;DHT22;62540;48.456;-4.456;2022-12-10T13:50:25;10.39;55.32
74178;DHT22;62540;48.456;-4.456;2022-12-10T13:53:14;10.28;54.92
74178;DHT22;62540;48.456;-4.456;2022-12-10T14:01:49;10.05;56.12
74178;DHT22;62540;48.456;-4.456;2022-12-10T14:07:15;9.81;53.19
74178;DHT22;62540;48.456;-4.456;2022-12-10T14:09:53;9.67;54.16
74178;DHT22;62540;48.456;-4.456;2022-12-10T14:12:32;9.57;55.09
74178;DHT22;62540;48.456;-4.456;2022-12-10T14:15:04;9.54;55.69
74178;DHT22;62540;48.456;-4.456;2022-12-10T14:17:38;9.51;56.25
74178;DHT22;62540;48.456;-4.456;2022-12-10T14:20:07;9.47;55.97
74178;DHT22;62540;48.456;-4.456;2022-12-10T14:22:37;9.34;56.67
74178;DHT22;62540;48.456;-4.456;2022-12-10T14:25:06;9.31;57.18
74178;DHT22;62540;48.456;-4.456;2022-12-10T14:27:36;9.24;57.91
74178;DHT22;62540;48.456;-4.456;2022-12-10T14:30:23;9.18;58.51
74178;DHT22;62540;48.456;-4.456;2022-12-10T14:32:50;9.08;58.98
74178;DHT22;62540;48.456;-4.456;2022-12-10T14:35:23;9.06;59.05
74178;DHT22;62540;48.456;-4.456;2022-12-10T14:37:50;9.02;59.45
74178;DHT22;62540;48.456;-4.456;2022-12-10T14:40:29;8.98;59.95
74178;DHT22;62540;48.456;-4.456;2022-12-10T14:43:02;8.89;60.34
74178;DHT22;62540;48.456;-4.456;2022-12-10T14:45:38;8.86;60.79
74178;DHT22;62540;48.456;-4.456;2022-12-10T14:48:05;8.85;61.05
74178;DHT22;62540;48.456;-4.456;2022-12-10T14:50:34;8.85;60.94
74178;DHT22;62540;48.456;-4.456;2022-12-10T14:53:00;8.82;61.09
74178;DHT22;62540;48.456;-4.456;2022-12-10T14:55:26;8.75;61.34
74178;DHT22;62540;48.456;-4.456;2022-12-10T14:58:00;8.71;61.46
74178;DHT22;62540;48.456;-4.456;2022-12-10T15:00:27;8.67;61.65
74178;DHT22;62540;48.456;-4.456;2022-12-10T15:03:08;8.65;61.94
74178;DHT22;62540;48.456;-4.456;2022-12-10T15:05:36;8.64;62.05
74178;DHT22;62540;48.456;-4.456;2022-12-10T15:08:07;8.60;62.06
74178;DHT22;62540;48.456;-4.456;2022-12-10T15:11:00;8.57;62.34
74178;DHT22;62540;48.456;-4.456;2022-12-10T15:13:33;8.54;62.41
74178;DHT22;62540;48.456;-4.456;2022-12-10T15:15:59;8.52;62.63
74178;DHT22;62540;48.456;-4.456;2022-12-10T15:18:32;8.48;62.86
74178;DHT22;62540;48.456;-4.456;2022-12-10T15:23:39;8.40;63.61
74178;DHT22;62540;48.456;-4.456;2022-12-10T15:26:27;8.34;63.95
74178;DHT22;62540;48.456;-4.456;2022-12-10T15:31:49;8.29;65.19
74178;DHT22;62540;48.456;-4.456;2022-12-10T15:34:15;8.27;65.48
74178;DHT22;62540;48.456;-4.456;2022-12-10T15:36:54;8.26;66.20
74178;DHT22;62540;48.456;-4.456;2022-12-10T15:39:33;8.23;66.48
74178;DHT22;62540;48.456;-4.456;2022-12-10T15:42:04;8.20;67.00
74178;DHT22;62540;48.456;-4.456;2022-12-10T15:49:28;8.02;67.39
74178;DHT22;62540;48.456;-4.456;2022-12-10T15:51:55;7.99;67.59
74178;DHT22;62540;48.456;-4.456;2022-12-10T15:56:52;7.93;67.53
74178;DHT22;62540;48.456;-4.456;2022-12-10T15:59:18;7.96;67.42
74178;DHT22;62540;48.456;-4.456;2022-12-10T16:01:45;8.00;67.22
74178;DHT22;62540;48.456;-4.456;2022-12-10T16:04:11;7.93;67.99
74178;DHT22;62540;48.456;-4.456;2022-12-10T16:06:37;7.90;67.74
74178;DHT22;62540;48.456;-4.456;2022-12-10T16:09:02;7.85;67.99
74178;DHT22;62540;48.456;-4.456;2022-12-10T16:11:28;7.79;67.93
74178;DHT22;62540;48.456;-4.456;2022-12-10T16:13:55;7.73;68.22
74178;DHT22;62540;48.456;-4.456;2022-12-10T16:16:22;7.69;68.38
74178;DHT22;62540;48.456;-4.456;2022-12-10T16:18:48;7.62;68.34
74178;DHT22;62540;48.456;-4.456;2022-12-10T16:21:13;7.61;68.36
74178;DHT22;62540;48.456;-4.456;2022-12-10T16:23:39;7.58;68.29
74178;DHT22;62540;48.456;-4.456;2022-12-10T16:28:37;7.45;68.56
74178;DHT22;62540;48.456;-4.456;2022-12-10T16:31:03;7.45;68.86
74178;DHT22;62540;48.456;-4.456;2022-12-10T16:33:28;7.36;68.85
74178;DHT22;62540;48.456;-4.456;2022-12-10T16:35:55;7.21;69.91
74178;DHT22;62540;48.456;-4.456;2022-12-10T16:38:22;7.08;70.10
74178;DHT22;62540;48.456;-4.456;2022-12-10T16:40:48;6.93;70.40
74178;DHT22;62540;48.456;-4.456;2022-12-10T16:43:20;6.82;70.69
74178;DHT22;62540;48.456;-4.456;2022-12-10T16:45:47;6.72;70.52
74178;DHT22;62540;48.456;-4.456;2022-12-10T16:48:12;6.66;71.17
74178;DHT22;62540;48.456;-4.456;2022-12-10T16:50:39;6.55;71.12
74178;DHT22;62540;48.456;-4.456;2022-12-10T16:53:28;6.50;70.91
74178;DHT22;62540;48.456;-4.456;2022-12-10T16:55:55;6.52;70.78
74178;DHT22;62540;48.456;-4.456;2022-12-10T16:58:22;6.53;70.44
74178;DHT22;62540;48.456;-4.456;2022-12-10T17:00:49;6.50;70.48
74178;DHT22;62540;48.456;-4.456;2022-12-10T17:03:16;6.55;70.48
74178;DHT22;62540;48.456;-4.456;2022-12-10T17:05:53;6.49;70.65
74178;DHT22;62540;48.456;-4.456;2022-12-10T17:08:19;6.46;70.58
74178;DHT22;62540;48.456;-4.456;2022-12-10T17:10:45;6.46;70.26
74178;DHT22;62540;48.456;-4.456;2022-12-10T17:13:31;6.48;70.08
74178;DHT22;62540;48.456;-4.456;2022-12-10T17:15:57;6.48;69.99
74178;DHT22;62540;48.456;-4.456;2022-12-10T17:18:23;6.46;69.88
74178;DHT22;62540;48.456;-4.456;2022-12-10T17:20:49;6.42;70.30
74178;DHT22;62540;48.456;-4.456;2022-12-10T17:23:15;6.38;70.28
74178;DHT22;62540;48.456;-4.456;2022-12-10T17:25:42;6.35;70.37
74178;DHT22;62540;48.456;-4.456;2022-12-10T17:28:17;6.35;70.22
74178;DHT22;62540;48.456;-4.456;2022-12-10T17:30:42;6.35;70.39
74178;DHT22;62540;48.456;-4.456;2022-12-10T17:33:16;6.28;70.28
74178;DHT22;62540;48.456;-4.456;2022-12-10T17:35:43;6.28;70.54
74178;DHT22;62540;48.456;-4.456;2022-12-10T17:38:17;6.28;70.52
74178;DHT22;62540;48.456;-4.456;2022-12-10T17:40:43;6.25;70.72
74178;DHT22;62540;48.456;-4.456;2022-12-10T17:43:08;6.22;70.84
74178;DHT22;62540;48.456;-4.456;2022-12-10T17:45:34;6.18;70.80
74178;DHT22;62540;48.456;-4.456;2022-12-10T17:48:00;6.18;70.67
74178;DHT22;62540;48.456;-4.456;2022-12-10T17:50:29;6.20;71.04
74178;DHT22;62540;48.456;-4.456;2022-12-10T17:52:55;6.20;70.90